Time;durP1;ratioP1;P1;durP2;ratioP2;P2;SDS_P1;SDS_P2;PMS_P1;PMS_P2;Temp;Humidity;BMP_temperature;BMP_pressure;BME280_temperature;BME280_humidity;BME280_pressure;Samples;Min_cycle;Max_cycle;Signal;HPM_P1;HPM_P2
2021/09/08 00:01:57;;;;;;;2.33;1.98;;;;;;;29.44;22.30;95175.28;5054740;28;20040;-54
2021/09/08 00:04:25;;;;;;;5.00;2.08;;;;;;;29.55;21.97;95186.00;5054653;28;20056;-53
2021/09/08 00:06:52;;;;;;;2.53;2.08;;;;;;;29.84;21.44;95175.94;5035424;28;20048;-55
2021/09/08 00:09:19;;;;;;;4.22;2.10;;;;;;;29.95;21.22;95179.38;5035479;28;20115;-57
2021/09/08 00:11:46;;;;;;;4.30;1.90;;;;;;;29.90;21.33;95185.13;5046528;28;20044;-54
2021/09/08 00:14:13;;;;;;;3.25;1.83;;;;;;;30.02;21.11;95176.63;5055009;28;20041;-52
2021/09/08 00:16:42;;;;;;;3.70;2.30;;;;;;;29.98;21.19;95175.13;5045006;28;20041;-57
2021/09/08 00:19:09;;;;;;;3.15;2.05;;;;;;;29.80;21.54;95180.56;5035251;28;20057;-53
2021/09/08 00:21:36;;;;;;;3.85;1.70;;;;;;;29.76;21.38;95187.91;5044664;28;20052;-54
2021/09/08 00:24:04;;;;;;;2.78;1.60;;;;;;;30.04;21.10;95179.75;5055107;28;20475;-54
2021/09/08 00:26:31;;;;;;;2.15;1.60;;;;;;;30.03;21.15;95172.03;5054962;28;20045;-51
2021/09/08 00:28:58;;;;;;;2.40;1.63;;;;;;;30.14;20.97;95182.78;5055012;28;20060;-55
2021/09/08 00:31:25;;;;;;;4.80;2.10;;;;;;;30.31;20.83;95181.94;5054014;28;20448;-54
2021/09/08 00:33:52;;;;;;;3.58;1.92;;;;;;;29.73;21.54;95175.97;5054718;28;20470;-56
2021/09/08 00:36:19;;;;;;;5.13;2.10;;;;;;;29.93;21.18;95179.00;5054748;28;20119;-54
2021/09/08 00:38:47;;;;;;;4.38;1.60;;;;;;;29.58;21.63;95179.06;5054863;28;20064;-57
2021/09/08 00:41:15;;;;;;;2.70;1.80;;;;;;;29.90;21.32;95177.06;5054072;28;20045;-53
2021/09/08 00:43:47;;;;;;;3.15;1.83;;;;;;;29.77;21.26;95175.97;5054799;28;20049;-56
2021/09/08 00:46:15;;;;;;;3.67;1.80;;;;;;;29.98;21.30;95175.13;5053398;28;20460;-55
2021/09/08 00:48:45;;;;;;;2.50;1.75;;;;;;;30.25;20.67;95175.41;5054776;28;20079;-57
2021/09/08 00:51:14;;;;;;;3.25;2.20;;;;;;;29.59;21.44;95169.84;5054161;28;20061;-54
2021/09/08 00:53:43;;;;;;;3.38;1.70;;;;;;;29.60;21.61;95169.44;5054390;28;20056;-51
2021/09/08 00:56:12;;;;;;;3.40;2.05;;;;;;;29.67;21.49;95177.53;5054269;28;20064;-57
2021/09/08 00:58:39;;;;;;;4.25;2.20;;;;;;;29.38;21.80;95176.75;5054176;28;20080;-55
2021/09/08 01:01:06;;;;;;;3.35;2.30;;;;;;;29.72;21.46;95179.06;5048987;28;20126;-55
2021/09/08 01:03:35;;;;;;;2.92;2.13;;;;;;;29.61;21.50;95184.44;5054406;28;20372;-58
2021/09/08 01:06:02;;;;;;;4.28;2.45;;;;;;;29.46;21.94;95175.66;5054379;28;20057;-57
2021/09/08 01:08:32;;;;;;;4.28;2.40;;;;;;;29.88;21.33;95175.91;5054490;28;20053;-57
2021/09/08 01:11:02;;;;;;;3.60;2.17;;;;;;;29.81;21.38;95184.78;5053587;28;20051;-56
2021/09/08 01:13:30;;;;;;;4.38;1.95;;;;;;;29.91;21.40;95186.66;5054487;28;20060;-54
2021/09/08 01:16:01;;;;;;;5.05;2.20;;;;;;;29.69;21.64;95182.53;5054235;28;20072;-56
2021/09/08 01:18:28;;;;;;;4.40;2.07;;;;;;;29.54;21.76;95183.72;5054502;28;20049;-55
2021/09/08 01:20:55;;;;;;;4.43;2.40;;;;;;;29.61;21.71;95184.44;5053870;28;20283;-54
2021/09/08 01:23:26;;;;;;;3.33;2.00;;;;;;;29.60;21.88;95182.16;5054888;28;20052;-53
2021/09/08 01:25:53;;;;;;;5.30;2.45;;;;;;;29.46;21.94;95183.72;5054401;28;20041;-55
2021/09/08 01:28:20;;;;;;;3.55;2.10;;;;;;;29.42;21.95;95172.16;5054398;28;20056;-54
2021/09/08 01:30:52;;;;;;;4.80;2.10;;;;;;;29.80;21.55;95185.94;5053417;28;20064;-54
2021/09/08 01:33:19;;;;;;;4.28;2.20;;;;;;;29.43;22.03;95187.16;5054288;28;20061;-56
2021/09/08 01:35:46;;;;;;;2.80;1.90;;;;;;;29.72;21.71;95187.13;5054870;28;20059;-54
2021/09/08 01:38:14;;;;;;;3.25;2.10;;;;;;;29.74;21.79;95179.44;5054273;28;20059;-54
2021/09/08 01:40:41;;;;;;;5.00;2.20;;;;;;;29.65;21.89;95181.75;5054197;28;20056;-53
2021/09/08 01:43:08;;;;;;;3.85;2.00;;;;;;;29.63;22.05;95178.69;5053883;28;20057;-54
2021/09/08 01:45:41;;;;;;;4.50;1.95;;;;;;;29.67;21.93;95177.53;5053891;28;20044;-54
2021/09/08 01:48:12;;;;;;;4.20;2.28;;;;;;;28.94;23.01;95174.50;5054294;28;20556;-56
2021/09/08 01:50:39;;;;;;;2.88;2.10;;;;;;;29.59;22.14;95183.31;5054123;28;20053;-57
2021/09/08 01:53:06;;;;;;;3.80;2.25;;;;;;;29.19;22.57;95171.81;5053598;28;20048;-54
2021/09/08 01:55:33;;;;;;;2.95;1.80;;;;;;;29.30;22.54;95174.47;5053675;28;20049;-53
2021/09/08 01:58:00;;;;;;;3.05;2.00;;;;;;;29.68;21.93;95173.69;5054079;28;20056;-57
2021/09/08 02:00:29;;;;;;;3.60;2.10;;;;;;;29.50;22.21;95172.19;5053602;28;20060;-55
2021/09/08 02:02:56;;;;;;;2.97;2.20;;;;;;;29.48;22.31;95174.50;5053751;28;20057;-55
2021/09/08 02:05:23;;;;;;;6.15;2.03;;;;;;;29.70;21.96;95170.59;5053849;28;20044;-54
2021/09/08 02:07:51;;;;;;;3.10;2.03;;;;;;;29.20;22.41;95170.66;5053832;28;20060;-57
2021/09/08 02:10:18;;;;;;;2.80;1.88;;;;;;;29.41;22.33;95175.25;5053872;28;20040;-56
2021/09/08 02:12:46;;;;;;;3.92;2.28;;;;;;;29.62;22.02;95177.13;5053429;28;20448;-55
2021/09/08 02:15:13;;;;;;;5.38;2.25;;;;;;;29.58;22.16;95171.00;5053637;28;20060;-55
2021/09/08 02:17:41;;;;;;;3.65;2.10;;;;;;;29.83;21.82;95163.63;5053803;28;20060;-56
2021/09/08 02:20:09;;;;;;;3.85;2.10;;;;;;;29.54;22.16;95170.25;5054719;28;20044;-57
2021/09/08 02:22:36;;;;;;;2.78;1.90;;;;;;;29.73;22.11;95167.13;5056440;28;20053;-60
2021/09/08 02:25:04;;;;;;;4.15;2.10;;;;;;;29.54;22.04;95167.53;5057262;28;20037;-57
2021/09/08 02:27:31;;;;;;;4.10;2.42;;;;;;;29.48;22.22;95159.09;5057142;28;20455;-56
2021/09/08 02:29:58;;;;;;;2.70;2.20;;;;;;;29.37;22.45;95171.78;5055678;28;20368;-62
2021/09/08 02:32:25;;;;;;;4.10;2.10;;;;;;;29.44;22.36;95159.13;5057413;28;20057;-57
2021/09/08 02:34:52;;;;;;;4.72;2.20;;;;;;;29.26;22.59;95157.56;5056148;28;20068;-57
2021/09/08 02:37:20;;;;;;;4.65;2.30;;;;;;;29.28;22.59;95166.78;5056138;28;20053;-59
2021/09/08 02:39:47;;;;;;;4.45;2.15;;;;;;;29.21;22.90;95161.41;5056761;28;20051;-61
2021/09/08 02:42:15;;;;;;;6.22;2.00;;;;;;;29.07;22.96;95158.72;5056838;28;20061;-53
2021/09/08 02:44:43;;;;;;;3.08;2.20;;;;;;;29.50;22.33;95156.78;5056893;28;20360;-54
2021/09/08 02:47:11;;;;;;;4.60;2.00;;;;;;;29.59;22.16;95159.84;5057012;28;20049;-53
2021/09/08 02:49:38;;;;;;;4.03;2.17;;;;;;;29.33;22.67;95155.63;5056824;28;20048;-56
2021/09/08 02:52:06;;;;;;;3.55;2.20;;;;;;;29.48;22.55;95156.41;5056266;28;20041;-54
2021/09/08 02:54:33;;;;;;;2.83;1.90;;;;;;;29.42;22.61;95156.00;5056407;28;20052;-55
2021/09/08 02:57:00;;;;;;;3.38;2.10;;;;;;;29.54;22.42;95148.69;5056706;28;20056;-55
2021/09/08 02:59:27;;;;;;;4.28;2.05;;;;;;;29.53;22.42;95161.41;5057014;28;20364;-55
2021/09/08 03:01:55;;;;;;;4.18;2.00;;;;;;;29.37;22.34;95158.31;5055190;28;20048;-55
2021/09/08 03:04:22;;;;;;;4.38;2.60;;;;;;;29.37;22.52;95153.69;5056600;28;20056;-54
2021/09/08 03:06:49;;;;;;;3.58;2.33;;;;;;;29.33;22.55;95158.31;5056482;28;20056;-55
2021/09/08 03:09:16;;;;;;;3.88;2.20;;;;;;;29.38;22.80;95144.44;5056636;28;20056;-56
2021/09/08 03:11:44;;;;;;;2.70;2.40;;;;;;;29.24;22.63;95147.19;5055676;28;20060;-53
2021/09/08 03:14:11;;;;;;;3.60;2.20;;;;;;;29.25;22.92;95140.66;5056223;28;20060;-55
2021/09/08 03:16:38;;;;;;;3.53;2.03;;;;;;;29.27;22.83;95148.34;5056686;28;20321;-57
2021/09/08 03:19:05;;;;;;;3.13;2.25;;;;;;;29.28;22.89;95139.88;5056365;28;20336;-55
2021/09/08 03:21:32;;;;;;;3.20;2.33;;;;;;;29.18;22.68;95146.03;5055573;28;20048;-53
2021/09/08 03:23:59;;;;;;;3.13;2.22;;;;;;;29.29;22.78;95144.09;5056123;28;20053;-53
2021/09/08 03:26:27;;;;;;;4.72;2.28;;;;;;;29.36;22.57;95146.00;5056174;28;20041;-55
2021/09/08 03:28:54;;;;;;;3.92;2.00;;;;;;;28.97;23.03;95146.06;5056227;28;20048;-55
2021/09/08 03:31:21;;;;;;;4.43;2.38;;;;;;;29.19;23.03;95147.59;5050122;28;20056;-55
2021/09/08 03:33:48;;;;;;;3.45;2.15;;;;;;;28.96;23.15;95136.44;5056315;28;20045;-56
2021/09/08 03:36:16;;;;;;;4.93;2.10;;;;;;;29.05;23.10;95136.81;5055509;28;20070;-54
2021/09/08 03:38:43;;;;;;;3.40;2.25;;;;;;;29.15;22.71;95141.44;5055972;28;20063;-54
2021/09/08 03:41:10;;;;;;;5.15;2.30;;;;;;;29.17;22.94;95141.81;5055436;28;20075;-54
2021/09/08 03:44:02;;;;;;;3.53;2.30;;;;;;;29.24;22.72;95149.88;5055841;28;20056;-57
2021/09/08 03:46:29;;;;;;;4.85;2.50;;;;;;;28.97;23.16;95151.44;5055886;28;20048;-55
2021/09/08 03:48:56;;;;;;;3.83;2.58;;;;;;;29.15;22.96;95146.81;5055809;28;20376;-55
2021/09/08 03:51:23;;;;;;;3.80;2.30;;;;;;;28.96;23.30;95150.66;5055063;28;20049;-54
2021/09/08 03:53:50;;;;;;;4.40;2.30;;;;;;;29.16;22.65;95148.34;5055162;28;20053;-53
2021/09/08 03:56:17;;;;;;;4.75;2.30;;;;;;;29.12;22.88;95152.94;5055352;28;20329;-55
2021/09/08 03:58:44;;;;;;;4.00;2.15;;;;;;;29.03;23.15;95152.59;5056534;28;20064;-54
2021/09/08 04:01:12;;;;;;;4.28;2.13;;;;;;;29.00;22.97;95151.44;5054690;28;20066;-59
2021/09/08 04:03:39;;;;;;;4.93;2.20;;;;;;;28.98;23.25;95156.44;5055177;28;20053;-54
2021/09/08 04:06:06;;;;;;;3.67;2.20;;;;;;;29.20;22.99;95153.72;5055223;28;20056;-56
2021/09/08 04:08:33;;;;;;;4.78;2.25;;;;;;;28.99;23.30;95151.81;5055946;28;20056;-54
2021/09/08 04:11:00;;;;;;;3.92;2.45;;;;;;;28.89;23.46;95144.50;5055091;28;20359;-56
2021/09/08 04:13:27;;;;;;;3.88;2.20;;;;;;;29.13;23.08;95155.25;5055042;28;20475;-53
2021/09/08 04:15:54;;;;;;;3.53;2.15;;;;;;;29.42;22.73;95149.84;5053783;28;20083;-55
2021/09/08 04:18:24;;;;;;;5.22;2.50;;;;;;;29.00;23.33;95142.59;5055302;28;20472;-58
2021/09/08 04:20:51;;;;;;;2.70;2.10;;;;;;;29.22;22.91;95144.13;5055452;28;20049;-54
2021/09/08 04:23:18;;;;;;;6.60;2.58;;;;;;;29.40;22.84;95144.06;5053708;28;20041;-57
2021/09/08 04:25:45;;;;;;;4.70;2.47;;;;;;;29.39;22.52;95146.00;5054856;28;20048;-58
2021/09/08 04:28:12;;;;;;;4.72;2.72;;;;;;;29.30;22.54;95148.31;5054204;28;20052;-57
2021/09/08 04:30:39;;;;;;;6.75;2.33;;;;;;;29.33;22.77;95152.94;5054166;28;20065;-57
2021/09/08 04:33:06;;;;;;;4.60;2.10;;;;;;;29.62;22.33;95142.13;5054731;28;20049;-59
2021/09/08 04:35:34;;;;;;;3.53;2.50;;;;;;;29.16;22.82;95151.81;5054484;28;20375;-61
2021/09/08 04:38:01;;;;;;;3.80;2.45;;;;;;;29.35;22.62;95152.53;5055505;28;20040;-56
2021/09/08 04:40:29;;;;;;;6.38;2.28;;;;;;;29.15;23.28;95157.59;5054615;28;20057;-58
2021/09/08 04:42:56;;;;;;;6.18;2.60;;;;;;;29.47;22.62;95152.19;5054631;28;20048;-61
2021/09/08 04:45:23;;;;;;;4.95;2.50;;;;;;;29.19;22.75;95150.28;5054267;28;20052;-60
2021/09/08 04:47:50;;;;;;;3.13;2.33;;;;;;;29.41;22.57;95154.47;5046090;28;20046;-55
2021/09/08 04:50:17;;;;;;;3.22;2.28;;;;;;;29.22;22.56;95154.88;5046215;28;20051;-53
2021/09/08 04:52:44;;;;;;;4.38;2.53;;;;;;;29.27;22.59;95156.41;5055069;28;20053;-56
2021/09/08 04:55:11;;;;;;;4.45;2.40;;;;;;;29.38;22.45;95159.84;5054427;28;20052;-56
2021/09/08 04:57:38;;;;;;;3.80;2.60;;;;;;;29.42;22.75;95164.09;5053471;28;20053;-53
2021/09/08 05:00:06;;;;;;;5.68;2.33;;;;;;;29.57;22.49;95164.06;5053743;28;20056;-55
2021/09/08 05:02:36;;;;;;;4.93;2.65;;;;;;;29.46;22.50;95167.56;5054682;28;20045;-53
2021/09/08 05:05:04;;;;;;;4.95;2.78;;;;;;;29.33;22.57;95163.69;5054494;28;20382;-55
2021/09/08 05:07:31;;;;;;;3.90;2.90;;;;;;;29.61;22.33;95162.13;5053579;28;20379;-55
2021/09/08 05:09:58;;;;;;;4.20;2.55;;;;;;;29.53;22.42;95161.41;5054390;28;20056;-54
2021/09/08 05:12:25;;;;;;;4.78;2.72;;;;;;;29.64;22.42;95166.75;5045485;28;20064;-54
2021/09/08 05:14:52;;;;;;;3.90;2.95;;;;;;;29.73;22.13;95159.03;5034951;28;20044;-54
2021/09/08 05:17:19;;;;;;;6.57;2.60;;;;;;;29.66;22.19;95164.44;5034487;28;20049;-57
2021/09/08 05:19:46;;;;;;;4.00;2.47;;;;;;;29.72;22.05;95173.66;5046965;28;20052;-53
2021/09/08 05:22:13;;;;;;;5.90;2.65;;;;;;;29.82;21.87;95167.47;5053977;28;20041;-53
2021/09/08 05:24:40;;;;;;;3.78;2.47;;;;;;;29.97;21.85;95168.19;5038141;28;20045;-55
2021/09/08 05:27:07;;;;;;;3.83;2.40;;;;;;;29.95;21.88;95167.81;5034226;28;20053;-58
2021/09/08 05:29:34;;;;;;;5.30;2.60;;;;;;;29.98;21.90;95170.50;5044454;28;20059;-55
2021/09/08 05:32:02;;;;;;;4.22;2.60;;;;;;;30.00;21.85;95176.25;5054068;28;20060;-58
2021/09/08 05:34:29;;;;;;;4.68;2.88;;;;;;;29.77;22.08;95163.25;5054776;28;20041;-57
2021/09/08 05:36:56;;;;;;;5.60;2.92;;;;;;;30.01;21.77;95177.81;5054446;28;20041;-54
2021/09/08 05:39:23;;;;;;;5.63;2.58;;;;;;;29.96;22.00;95170.13;5053861;28;20060;-54
2021/09/08 05:41:50;;;;;;;2.95;2.20;;;;;;;29.83;22.29;95168.22;5054180;28;20475;-56
2021/09/08 05:44:17;;;;;;;5.00;2.67;;;;;;;30.16;21.62;95172.34;5054003;28;20364;-55
2021/09/08 05:46:45;;;;;;;4.68;2.88;;;;;;;29.92;21.80;95166.66;5055048;28;20399;-55
2021/09/08 05:49:14;;;;;;;4.20;2.53;;;;;;;30.06;21.65;95161.25;5054185;28;20395;-57
2021/09/08 05:51:41;;;;;;;4.20;2.60;;;;;;;29.59;22.16;95169.84;5053886;28;20436;-54
2021/09/08 05:54:08;;;;;;;3.60;2.45;;;;;;;29.68;22.02;95164.84;5053783;28;20063;-55
2021/09/08 05:56:36;;;;;;;4.63;2.20;;;;;;;29.96;21.79;95159.34;5055677;28;20056;-59
2021/09/08 05:59:03;;;;;;;4.78;2.97;;;;;;;30.35;21.77;95161.09;5057938;28;20064;-60
2021/09/08 06:01:30;;;;;;;5.95;2.92;;;;;;;30.01;21.81;95153.53;5043223;28;20045;-54
2021/09/08 06:03:58;;;;;;;3.92;2.28;;;;;;;30.22;21.61;95157.34;5037604;28;20053;-58
2021/09/08 06:06:25;;;;;;;4.35;2.63;;;;;;;30.16;21.65;95159.66;5037726;28;20052;-55
2021/09/08 06:08:52;;;;;;;5.88;2.92;;;;;;;30.50;21.19;95151.78;5041795;28;20052;-55
2021/09/08 06:11:19;;;;;;;5.20;2.50;;;;;;;30.41;21.61;95148.72;5057747;28;20064;-57
2021/09/08 06:13:46;;;;;;;3.90;2.30;;;;;;;30.55;21.31;95153.28;5057170;28;20048;-60
2021/09/08 06:16:13;;;;;;;8.90;2.80;;;;;;;30.57;21.02;95156.34;5055237;28;20352;-57
2021/09/08 06:18:40;;;;;;;5.20;2.58;;;;;;;30.79;21.03;95151.59;5057586;28;20052;-58
2021/09/08 06:21:07;;;;;;;4.15;2.60;;;;;;;30.92;21.08;95155.34;5057160;28;20043;-56
2021/09/08 06:23:34;;;;;;;4.95;2.53;;;;;;;30.82;21.61;95156.22;5057034;28;20061;-57
2021/09/08 06:26:02;;;;;;;6.05;2.40;;;;;;;30.94;20.93;95156.47;5050612;28;20041;-59
2021/09/08 06:28:30;;;;;;;5.38;2.67;;;;;;;31.26;20.91;95150.84;5056688;28;20059;-59
2021/09/08 06:30:57;;;;;;;3.75;2.30;;;;;;;31.29;21.03;95163.56;5056608;28;20044;-56
2021/09/08 06:33:24;;;;;;;4.18;2.40;;;;;;;31.58;20.47;95163.28;5057185;28;20068;-59
2021/09/08 06:35:52;;;;;;;8.82;2.45;;;;;;;32.07;20.61;95161.22;5054218;28;20057;-62
2021/09/08 06:38:19;;;;;;;5.10;2.80;;;;;;;31.69;20.38;95163.16;5055393;28;20071;-61
2021/09/08 06:40:46;;;;;;;6.75;3.05;;;;;;;31.89;20.27;95167.59;5056697;28;20075;-61
2021/09/08 06:43:13;;;;;;;6.72;2.80;;;;;;;32.04;20.26;95178.25;5057107;28;20044;-62
2021/09/08 06:45:40;;;;;;;4.63;2.70;;;;;;;31.96;19.94;95176.78;5056769;28;20064;-63
2021/09/08 06:48:07;;;;;;;4.53;2.55;;;;;;;32.21;19.61;95178.00;5055794;28;20048;-62
2021/09/08 06:50:34;;;;;;;4.18;2.30;;;;;;;31.94;19.73;95179.13;5056706;28;20356;-62
2021/09/08 06:53:01;;;;;;;4.45;2.22;;;;;;;31.75;20.27;95183.19;5056942;28;20049;-63
2021/09/08 06:55:29;;;;;;;4.18;2.83;;;;;;;31.94;20.25;95177.19;5056654;28;20056;-56
2021/09/08 06:57:56;;;;;;;6.35;2.90;;;;;;;31.95;20.03;95180.66;5056558;28;20060;-55
2021/09/08 07:00:23;;;;;;;4.88;2.83;;;;;;;32.28;19.82;95181.84;5056911;28;20466;-56
2021/09/08 07:02:50;;;;;;;5.43;2.60;;;;;;;32.51;19.16;95185.38;5051512;28;20364;-58
2021/09/08 07:05:18;;;;;;;6.07;2.42;;;;;;;32.39;19.05;95177.81;5036882;28;20479;-55
2021/09/08 07:07:45;;;;;;;5.97;2.97;;;;;;;32.95;19.00;95186.31;5048410;28;20103;-58
2021/09/08 07:10:12;;;;;;;6.68;2.75;;;;;;;32.95;18.94;95175.47;5056553;28;20056;-57
2021/09/08 07:12:39;;;;;;;6.25;2.70;;;;;;;33.89;18.30;95183.59;5056670;28;20041;-57
2021/09/08 07:15:06;;;;;;;3.72;2.40;;;;;;;34.36;17.67;95191.59;5039792;28;20379;-58
2021/09/08 07:17:33;;;;;;;5.32;2.55;;;;;;;34.32;17.37;95189.66;5047032;28;20045;-55
2021/09/08 07:20:00;;;;;;;4.28;2.30;;;;;;;34.97;16.95;95191.03;5053486;28;20057;-57
2021/09/08 07:22:29;;;;;;;4.30;2.75;;;;;;;34.25;17.32;95186.34;5044723;28;20052;-55
2021/09/08 07:24:56;;;;;;;3.75;2.00;;;;;;;34.48;17.13;95199.84;5055037;28;20052;-56
2021/09/08 07:27:23;;;;;;;4.50;2.40;;;;;;;35.46;16.39;95200.72;5056228;28;20045;-57
2021/09/08 07:29:50;;;;;;;4.40;2.58;;;;;;;35.14;16.82;95195.28;5055215;28;20069;-58
2021/09/08 07:32:17;;;;;;;6.25;2.13;;;;;;;34.92;16.39;95203.94;5056104;28;20052;-57
2021/09/08 07:34:45;;;;;;;3.63;2.10;;;;;;;35.04;16.52;95201.72;5055883;28;20064;-57
2021/09/08 07:37:12;;;;;;;3.42;2.03;;;;;;;35.19;16.35;95213.78;5056634;28;20049;-58
2021/09/08 07:39:39;;;;;;;7.57;2.25;;;;;;;34.95;16.41;95209.72;5055633;28;20052;-58
2021/09/08 07:42:06;;;;;;;4.57;2.35;;;;;;;34.48;16.92;95210.69;5056175;28;20053;-57
2021/09/08 07:44:33;;;;;;;2.85;1.85;;;;;;;34.48;16.73;95212.66;5055429;28;20053;-61
2021/09/08 07:47:00;;;;;;;5.85;2.15;;;;;;;34.41;16.68;95204.66;5056219;28;20041;-59
2021/09/08 07:49:27;;;;;;;6.38;2.08;;;;;;;34.09;17.12;95211.47;5052482;28;20053;-55
2021/09/08 07:51:54;;;;;;;4.53;2.17;;;;;;;33.58;17.50;95207.38;5055376;28;20044;-56
2021/09/08 07:54:21;;;;;;;5.78;1.83;;;;;;;33.57;17.48;95209.31;5055188;28;20458;-59
2021/09/08 07:56:48;;;;;;;2.58;1.50;;;;;;;32.76;18.30;95212.09;5055582;28;20053;-62
2021/09/08 07:59:15;;;;;;;3.10;1.88;;;;;;;32.97;18.12;95204.84;5055594;28;20063;-56
2021/09/08 08:01:42;;;;;;;5.75;2.00;;;;;;;32.42;18.62;95209.47;5054691;28;20049;-58
2021/09/08 08:04:10;;;;;;;3.35;2.03;;;;;;;32.48;18.32;95207.06;5055231;28;20049;-57
2021/09/08 08:06:38;;;;;;;4.28;2.13;;;;;;;32.36;18.11;95202.97;5042691;28;20041;-55
2021/09/08 08:09:08;;;;;;;3.00;1.95;;;;;;;32.69;18.08;95200.59;5035612;28;20120;-59
2021/09/08 08:11:35;;;;;;;5.25;2.13;;;;;;;32.91;18.37;95199.16;5051518;28;20448;-57
2021/09/08 08:14:02;;;;;;;4.68;1.92;;;;;;;32.53;18.84;95201.22;5054999;28;20371;-60
2021/09/08 08:16:30;;;;;;;3.67;2.08;;;;;;;32.61;18.51;95191.06;5054405;28;20360;-58
2021/09/08 08:18:57;;;;;;;2.50;1.88;;;;;;;32.56;18.45;95199.63;5054433;28;20045;-60
2021/09/08 08:21:24;;;;;;;3.30;2.00;;;;;;;32.33;18.51;95203.78;5054948;28;20056;-55
2021/09/08 08:23:53;;;;;;;2.90;1.95;;;;;;;32.57;17.79;95201.16;5054513;28;20733;-61
2021/09/08 08:26:22;;;;;;;5.10;2.08;;;;;;;33.06;17.72;95203.19;5055312;28;20045;-57
2021/09/08 08:28:49;;;;;;;3.13;2.13;;;;;;;32.77;17.75;95199.31;5054057;28;20063;-58
2021/09/08 08:31:16;;;;;;;2.90;1.70;;;;;;;32.86;17.06;95196.91;5054795;28;20060;-57
2021/09/08 08:33:46;;;;;;;3.42;1.80;;;;;;;32.57;17.36;95195.75;5054603;28;20051;-59
2021/09/08 08:36:13;;;;;;;2.53;1.70;;;;;;;33.06;17.37;95195.06;5055000;28;20064;-58
2021/09/08 08:38:42;;;;;;;4.63;2.17;;;;;;;33.63;16.59;95199.53;5041366;28;20365;-59
2021/09/08 08:41:09;;;;;;;4.65;1.98;;;;;;;33.58;16.46;95193.81;5054308;28;20364;-58
2021/09/08 08:43:37;;;;;;;3.35;1.77;;;;;;;33.75;16.02;95203.56;5053351;28;20044;-60
2021/09/08 08:46:04;;;;;;;2.90;1.83;;;;;;;33.08;15.76;95195.41;5053832;28;20040;-59
2021/09/08 08:48:31;;;;;;;2.60;1.60;;;;;;;33.26;15.91;95205.16;5053849;28;20080;-60
2021/09/08 08:50:59;;;;;;;5.50;1.85;;;;;;;33.18;15.59;95198.34;5054426;28;20467;-60
2021/09/08 08:53:26;;;;;;;2.03;1.52;;;;;;;32.89;16.12;95198.78;5054232;28;20482;-63
2021/09/08 08:55:53;;;;;;;2.45;1.70;;;;;;;32.95;16.20;95191.72;5054472;28;20371;-61
2021/09/08 08:58:20;;;;;;;3.35;2.05;;;;;;;33.13;15.58;95177.16;5054821;28;20060;-62
2021/09/08 09:00:47;;;;;;;5.38;2.10;;;;;;;33.38;15.91;95193.78;5054096;28;20041;-63
2021/09/08 09:03:26;;;;;;;2.63;1.60;;;;;;;33.28;15.78;95178.44;5054282;28;20049;-61
2021/09/08 09:06:04;;;;;;;3.17;1.65;;;;;;;33.90;15.34;95185.13;5054358;28;20052;-57
2021/09/08 09:08:33;;;;;;;3.67;1.73;;;;;;;33.85;15.33;95191.81;5054137;28;20041;-54
2021/09/08 09:11:01;;;;;;;2.47;1.60;;;;;;;34.08;15.56;95185.50;5051177;28;20049;-56
2021/09/08 09:13:35;;;;;;;3.42;2.03;;;;;;;34.36;15.25;95186.94;5054082;28;20041;-56
2021/09/08 09:16:09;;;;;;;2.88;1.67;;;;;;;34.55;15.05;95179.91;5054400;28;20056;-56
2021/09/08 09:18:44;;;;;;;2.60;1.65;;;;;;;34.86;14.70;95167.59;5053284;28;20055;-56
2021/09/08 09:21:14;;;;;;;3.25;1.58;;;;;;;35.01;14.64;95164.56;5052863;28;20056;-59
2021/09/08 09:23:52;;;;;;;3.50;1.83;;;;;;;34.57;15.30;95169.41;5054038;28;20044;-55
2021/09/08 09:26:28;;;;;;;3.00;1.70;;;;;;;34.51;15.30;95160.25;5054898;28;20052;-60
2021/09/08 09:29:11;;;;;;;3.47;1.48;;;;;;;34.35;15.46;95152.06;5054422;28;20084;-56
2021/09/08 09:31:57;;;;;;;2.88;2.00;;;;;;;34.21;15.51;95175.56;5056570;28;20040;-58
2021/09/08 09:34:27;;;;;;;3.33;1.85;;;;;;;34.09;15.80;95162.63;5057815;28;20057;-56
2021/09/08 09:36:56;;;;;;;3.92;1.70;;;;;;;34.75;15.09;95161.63;5058260;28;20055;-55
2021/09/08 09:39:28;;;;;;;2.70;1.83;;;;;;;34.44;15.41;95144.13;5058083;28;20056;-56
2021/09/08 09:42:06;;;;;;;2.25;1.80;;;;;;;34.54;15.20;95143.88;5057173;28;20060;-55
2021/09/08 09:44:33;;;;;;;4.30;1.70;;;;;;;34.93;15.12;95148.44;5057727;28;20052;-55
2021/09/08 09:47:00;;;;;;;2.72;1.67;;;;;;;35.26;14.64;95132.09;5059352;28;20049;-56
2021/09/08 09:49:32;;;;;;;5.35;1.92;;;;;;;35.26;14.94;95151.13;5050834;28;20045;-59
2021/09/08 09:51:59;;;;;;;;;;;;;;;35.14;14.92;95143.66;5058637;28;20045;-59
2021/09/08 09:54:26;;;;;;;2.20;1.88;;;;;;;34.92;14.86;95146.91;5058135;28;19916;-55
2021/09/08 09:56:54;;;;;;;2.08;1.55;;;;;;;35.08;14.92;95137.19;5057732;28;20456;-56
2021/09/08 09:59:22;;;;;;;2.72;1.45;;;;;;;35.58;15.12;95142.16;5057711;28;20368;-60
2021/09/08 10:01:49;;;;;;;3.42;1.63;;;;;;;35.48;14.55;95138.53;5057160;28;20052;-60
2021/09/08 10:04:16;;;;;;;2.25;1.48;;;;;;;35.45;14.56;95139.41;5057337;28;20052;-57
2021/09/08 10:06:44;;;;;;;2.40;1.42;;;;;;;34.80;14.64;95150.25;5057761;28;20041;-57
2021/09/08 10:09:14;;;;;;;2.33;1.67;;;;;;;34.49;14.25;95136.22;5055366;28;20088;-55
2021/09/08 10:11:46;;;;;;;3.57;1.60;;;;;;;34.33;14.55;95139.66;5057707;28;20052;-56
2021/09/08 10:14:23;;;;;;;4.53;1.67;;;;;;;34.22;14.95;95136.41;5056338;28;20057;-54
2021/09/08 10:16:51;;;;;;;3.75;1.80;;;;;;;34.47;14.82;95127.00;5058297;28;20494;-56
2021/09/08 10:19:28;;;;;;;2.72;1.50;;;;;;;34.02;15.30;95132.94;5057312;28;20060;-57
2021/09/08 10:22:06;;;;;;;3.83;1.70;;;;;;;34.55;15.42;95139.97;5056254;28;20052;-58
2021/09/08 10:24:33;;;;;;;3.80;1.77;;;;;;;34.90;15.24;95121.38;5057131;28;20053;-59
2021/09/08 10:27:00;;;;;;;3.90;1.60;;;;;;;35.72;14.50;95125.47;5052950;28;20045;-58
2021/09/08 10:29:28;;;;;;;3.00;1.73;;;;;;;35.54;13.96;95125.19;5038253;28;20049;-60
2021/09/08 10:31:57;;;;;;;5.07;1.50;;;;;;;34.66;14.38;95126.16;5056605;28;20041;-58
2021/09/08 10:34:25;;;;;;;3.67;1.83;;;;;;;34.53;14.39;95128.00;5056765;28;20056;-60
2021/09/08 10:36:52;;;;;;;2.42;1.55;;;;;;;34.31;14.40;95124.97;5045657;28;20050;-56
2021/09/08 10:39:20;;;;;;;2.75;1.48;;;;;;;34.06;14.46;95130.94;5036705;28;20060;-60
2021/09/08 10:41:50;;;;;;;3.10;1.50;;;;;;;34.02;14.18;95136.44;5056313;28;20052;-56
2021/09/08 10:44:19;;;;;;;2.78;1.50;;;;;;;34.15;14.47;95128.44;5056619;28;20360;-59
2021/09/08 10:46:57;;;;;;;4.95;1.60;;;;;;;33.97;14.35;95134.22;5057073;28;20363;-56
2021/09/08 10:49:42;;;;;;;2.78;1.50;;;;;;;34.19;14.13;95129.13;5056766;28;20079;-56
2021/09/08 10:52:11;;;;;;;2.97;1.70;;;;;;;33.80;14.58;95140.72;5057480;28;20040;-59
2021/09/08 10:54:56;;;;;;;2.67;1.50;;;;;;;33.91;14.59;95135.13;5056485;28;20515;-62
2021/09/08 10:57:58;;;;;;;2.95;1.50;;;;;;;33.62;14.77;95141.06;5056666;28;20053;-62
2021/09/08 11:00:35;;;;;;;2.20;1.35;;;;;;;33.79;14.59;95127.59;5054869;28;20049;-61
2021/09/08 11:03:03;;;;;;;9.50;7.80;;;;;;;33.51;15.03;95129.66;5057028;28;20055;-61
2021/09/08 11:05:30;;;;;;;3.63;2.22;;;;;;;33.68;14.42;95136.69;5056258;28;20447;-56
2021/09/08 11:07:57;;;;;;;2.83;1.83;;;;;;;33.46;15.01;95134.81;5056648;28;20044;-58
2021/09/08 11:10:27;;;;;;;2.95;1.70;;;;;;;33.80;14.71;95124.44;5056421;28;20059;-61
2021/09/08 11:12:57;;;;;;;3.50;1.70;;;;;;;33.84;15.19;95132.56;5056591;28;20045;-60
2021/09/08 11:15:50;;;;;;;2.97;1.60;;;;;;;33.91;15.00;95125.03;5056099;28;20056;-61
2021/09/08 11:18:17;;;;;;;3.70;1.92;;;;;;;33.93;14.94;95149.03;5055288;28;20057;-58
2021/09/08 11:20:44;;;;;;;4.03;2.17;;;;;;;33.74;14.77;95120.69;5056883;28;20068;-62
2021/09/08 11:23:13;;;;;;;5.10;1.63;;;;;;;33.52;15.03;95123.06;5056193;28;20044;-54
2021/09/08 11:25:42;;;;;;;2.47;1.60;;;;;;;33.63;15.46;95120.91;5055781;28;20056;-54
2021/09/08 11:28:10;;;;;;;4.03;1.63;;;;;;;33.60;15.39;95121.75;5056114;28;20049;-54
2021/09/08 11:30:39;;;;;;;4.53;1.58;;;;;;;33.51;15.74;95107.22;5055552;28;20056;-55
2021/09/08 11:33:11;;;;;;;6.40;1.83;;;;;;;33.73;15.57;95114.50;5055957;28;20051;-54
2021/09/08 11:35:43;;;;;;;3.78;1.88;;;;;;;33.23;15.87;95113.88;5055683;28;20340;-56
2021/09/08 11:38:18;;;;;;;4.03;1.80;;;;;;;33.59;15.56;95108.63;5056563;28;20045;-54
2021/09/08 11:40:51;;;;;;;2.25;1.60;;;;;;;33.44;15.64;95102.69;5055796;28;20060;-56